Time;durP1;ratioP1;P1;durP2;ratioP2;P2;SDS_P1;SDS_P2;PMS_P1;PMS_P2;Temp;Humidity;BMP_temperature;BMP_pressure;BME280_temperature;BME280_humidity;BME280_pressure;Samples;Min_cycle;Max_cycle;Signal;HPM_P1;HPM_P2
2022/08/16 00:01:37;;;;;;;16.92;13.05;;;;;;;18.28;100.00;96370.38;5047538;28;20052;-64
2022/08/16 00:04:06;;;;;;;17.42;13.77;;;;;;;18.73;100.00;96439.44;5047208;28;20163;-56
2022/08/16 00:06:35;;;;;;;19.52;13.63;;;;;;;18.68;100.00;96434.38;5047194;28;20460;-64
2022/08/16 00:09:05;;;;;;;17.52;14.10;;;;;;;18.70;100.00;96426.28;5047659;28;20083;-56
2022/08/16 00:11:32;;;;;;;17.38;13.60;;;;;;;18.55;100.00;96419.44;5045537;28;20500;-64
2022/08/16 00:13:59;;;;;;;18.20;14.00;;;;;;;18.59;100.00;96420.13;5045869;28;20055;-64
2022/08/16 00:16:30;;;;;;;18.05;13.98;;;;;;;18.73;100.00;96416.22;5046623;28;20071;-64
2022/08/16 00:19:20;;;;;;;18.90;13.30;;;;;;;18.64;100.00;96422.41;5027708;28;20099;-64
2022/08/16 00:21:49;;;;;;;20.92;14.05;;;;;;;18.55;100.00;96425.06;5026821;28;20053;-57
2022/08/16 00:24:25;;;;;;;18.98;13.00;;;;;;;18.10;100.00;96359.59;5027414;28;20109;-64
2022/08/16 00:27:00;;;;;;;20.85;13.57;;;;;;;18.27;100.00;96425.69;5025806;28;20058;-56
2022/08/16 00:29:27;;;;;;;18.88;13.63;;;;;;;18.24;100.00;96423.75;5026749;28;20060;-57
2022/08/16 00:31:56;;;;;;;21.65;14.57;;;;;;;18.13;100.00;96411.22;5026905;28;20061;-64
2022/08/16 00:34:34;;;;;;;19.15;13.48;;;;;;;17.53;100.00;96342.50;5025700;28;20053;-63
2022/08/16 00:37:19;;;;;;;22.15;13.65;;;;;;;18.15;100.00;96437.56;5026828;28;20119;-63
2022/08/16 00:39:47;;;;;;;19.50;13.50;;;;;;;18.08;100.00;96437.75;5026708;28;20049;-64
2022/08/16 00:42:29;;;;;;;17.27;13.02;;;;;;;18.15;100.00;96440.38;5040297;28;20495;-56
2022/08/16 00:45:03;;;;;;;22.35;14.15;;;;;;;17.98;100.00;96449.97;5027024;28;20107;-64
2022/08/16 00:47:37;;;;;;;20.88;13.77;;;;;;;17.84;100.00;96406.25;5041258;28;20081;-65
2022/08/16 00:50:05;;;;;;;16.50;12.80;;;;;;;18.12;100.00;96441.25;5026714;28;20498;-58
2022/08/16 00:52:39;;;;;;;18.27;13.25;;;;;;;17.82;100.00;96382.66;5026589;28;20647;-56
2022/08/16 00:55:21;;;;;;;18.65;12.13;;;;;;;17.78;100.00;96393.16;5026705;28;20068;-64
2022/08/16 00:57:51;;;;;;;24.80;13.45;;;;;;;17.75;100.00;96396.84;5041489;28;20060;-62
2022/08/16 01:00:27;;;;;;;16.92;12.77;;;;;;;18.06;100.00;96460.59;5026456;28;20053;-56
2022/08/16 01:02:56;;;;;;;16.23;12.45;;;;;;;18.06;100.00;96462.59;5041267;28;20474;-64
2022/08/16 01:05:24;;;;;;;18.08;12.95;;;;;;;17.99;100.00;96459.94;5024531;28;20524;-64
2022/08/16 01:07:52;;;;;;;19.00;13.40;;;;;;;17.92;100.00;96472.09;5026346;28;20057;-57
2022/08/16 01:10:24;;;;;;;21.80;14.20;;;;;;;17.85;100.00;96466.66;5026224;28;20107;-64
2022/08/16 01:13:12;;;;;;;20.75;13.82;;;;;;;17.87;100.00;96469.00;5024923;28;20080;-58
2022/08/16 01:15:47;;;;;;;21.58;14.55;;;;;;;17.84;100.00;96458.66;5026162;28;20065;-65
2022/08/16 01:18:21;;;;;;;19.45;14.95;;;;;;;17.35;100.00;96370.03;5038422;28;20060;-58
2022/08/16 01:21:37;;;;;;;22.98;15.65;;;;;;;17.83;100.00;96451.50;5045732;28;20053;-65
2022/08/16 01:24:23;;;;;;;22.63;15.95;;;;;;;17.87;100.00;96450.19;5045843;28;20049;-57
2022/08/16 01:27:19;;;;;;;19.88;13.82;;;;;;;17.92;100.00;96449.66;5045227;28;20049;-57
2022/08/16 01:30:11;;;;;;;18.65;14.25;;;;;;;17.93;100.00;96442.06;5045936;28;20048;-64
2022/08/16 01:32:48;;;;;;;17.33;13.48;;;;;;;17.48;100.00;96376.59;5045593;28;20132;-65
2022/08/16 01:35:39;;;;;;;17.88;12.35;;;;;;;17.95;100.00;96448.03;5045390;28;20504;-64
2022/08/16 01:38:43;;;;;;;19.30;13.20;;;;;;;17.87;100.00;96446.59;5045628;28;20049;-64
2022/08/16 01:41:25;;;;;;;19.02;13.43;;;;;;;17.70;100.00;96425.34;5044732;28;20048;-56
2022/08/16 01:43:56;;;;;;;15.07;12.40;;;;;;;17.42;100.00;96365.06;5045862;28;20057;-64
2022/08/16 01:46:40;;;;;;;20.08;14.77;;;;;;;17.41;100.00;96460.69;5045555;28;20049;-64
2022/08/16 01:49:10;;;;;;;17.00;13.35;;;;;;;17.57;100.00;96450.41;5045174;28;20053;-56
2022/08/16 01:51:40;;;;;;;19.27;13.60;;;;;;;17.68;100.00;96447.41;5045710;28;20546;-56
2022/08/16 01:54:09;;;;;;;18.55;14.27;;;;;;;17.80;100.00;96446.72;5043953;28;20476;-65
2022/08/16 01:56:39;;;;;;;17.27;13.65;;;;;;;17.80;100.00;96449.53;5045530;28;20055;-57
2022/08/16 01:59:08;;;;;;;20.85;13.65;;;;;;;17.82;100.00;96449.91;5043987;28;20499;-65
2022/08/16 02:01:41;;;;;;;19.50;14.52;;;;;;;17.89;100.00;96444.16;5045281;28;20081;-56
2022/08/16 02:04:08;;;;;;;17.85;14.18;;;;;;;17.68;100.00;96427.78;5045243;28;20126;-56
2022/08/16 02:06:39;;;;;;;18.50;13.43;;;;;;;17.87;100.00;96443.78;5044936;28;20068;-56
2022/08/16 02:09:13;;;;;;;16.58;12.98;;;;;;;17.88;100.00;96448.97;5045274;28;20057;-59
2022/08/16 02:11:46;;;;;;;19.10;13.30;;;;;;;17.84;100.00;96447.47;5044765;28;20056;-58
2022/08/16 02:14:22;;;;;;;17.88;13.63;;;;;;;17.80;100.00;96441.13;5044699;28;20110;-58
2022/08/16 02:16:52;;;;;;;20.90;14.85;;;;;;;17.69;100.00;96429.34;5044648;28;20065;-64
2022/08/16 02:19:19;;;;;;;18.00;13.45;;;;;;;17.80;100.00;96430.72;5024955;28;20072;-57
2022/08/16 02:21:51;;;;;;;17.20;13.63;;;;;;;17.81;100.00;96443.50;5025024;28;20097;-64
2022/08/16 02:24:40;;;;;;;17.25;13.50;;;;;;;17.42;100.00;96397.91;5024765;28;20573;-57
2022/08/16 02:27:11;;;;;;;;;;;;;;;17.80;100.00;96446.72;5025430;28;20492;-64
2022/08/16 02:29:38;;;;;;;17.42;13.18;;;;;;;17.73;100.00;96463.69;5024729;28;19931;-65
2022/08/16 02:32:10;;;;;;;19.05;12.82;;;;;;;17.69;100.00;96458.16;5023183;28;20516;-57
2022/08/16 02:34:57;;;;;;;19.33;14.80;;;;;;;17.63;100.00;96464.69;5023835;28;20049;-64
2022/08/16 02:37:23;;;;;;;19.73;14.80;;;;;;;17.23;100.00;96409.88;5024603;28;20432;-65
2022/08/16 02:40:12;;;;;;;21.48;14.90;;;;;;;17.41;100.00;96418.69;5024898;28;20073;-64
2022/08/16 02:42:47;;;;;;;20.08;14.48;;;;;;;17.84;100.00;96467.06;5024437;28;20141;-56
2022/08/16 02:45:16;;;;;;;31.23;17.98;;;;;;;17.68;100.00;96461.41;5024800;28;20056;-63
2022/08/16 02:47:43;;;;;;;42.22;23.77;;;;;;;17.59;100.00;96458.38;5022775;28;20053;-65
2022/08/16 02:50:27;;;;;;;36.35;20.70;;;;;;;17.50;100.00;96449.75;5024325;28;20053;-57
2022/08/16 02:53:14;;;;;;;30.70;17.05;;;;;;;17.56;100.00;96453.66;5025527;28;20111;-64
2022/08/16 02:55:44;;;;;;;19.60;13.13;;;;;;;17.55;100.00;96457.66;5028724;28;20060;-56
2022/08/16 02:58:16;;;;;;;20.55;13.73;;;;;;;16.95;100.00;96374.00;5028727;28;20061;-64
2022/08/16 03:00:43;;;;;;;23.10;14.25;;;;;;;17.53;100.00;96460.13;5028363;28;20432;-57
2022/08/16 03:03:16;;;;;;;23.42;14.80;;;;;;;17.40;100.00;96459.13;5028790;28;20435;-64
2022/08/16 03:05:46;;;;;;;21.00;14.32;;;;;;;17.37;100.00;96462.78;5028544;28;20045;-60
2022/08/16 03:08:18;;;;;;;21.70;13.35;;;;;;;17.45;100.00;96458.66;5028624;28;20111;-64
2022/08/16 03:11:05;;;;;;;20.17;14.63;;;;;;;17.34;100.00;96458.03;5028343;28;20073;-55
2022/08/16 03:13:42;;;;;;;20.67;13.27;;;;;;;17.45;100.00;96465.03;5028414;28;20063;-56
2022/08/16 03:16:13;;;;;;;20.45;14.75;;;;;;;17.27;100.00;96452.56;5027988;28;20183;-58
2022/08/16 03:19:00;;;;;;;21.83;14.85;;;;;;;17.36;100.00;96461.19;5045819;28;20408;-63
2022/08/16 03:21:28;;;;;;;24.40;14.52;;;;;;;15.45;100.00;96155.44;5046576;28;20136;-57
2022/08/16 03:24:05;;;;;;;20.38;13.65;;;;;;;17.44;100.00;96465.44;5048178;28;20057;-64
2022/08/16 03:26:52;;;;;;;18.48;13.02;;;;;;;17.47;100.00;96467.41;5046836;28;20494;-65
2022/08/16 03:29:18;;;;;;;21.67;15.90;;;;;;;17.46;100.00;96465.84;5048029;28;20057;-64
2022/08/16 03:31:45;;;;;;;19.15;15.45;;;;;;;17.38;100.00;96458.75;5047706;28;20519;-57
2022/08/16 03:34:18;;;;;;;21.20;13.97;;;;;;;17.29;100.00;96475.34;5046729;28;20128;-64
2022/08/16 03:36:46;;;;;;;19.90;14.88;;;;;;;17.32;100.00;96466.06;5047469;28;20049;-65
2022/08/16 03:39:12;;;;;;;23.90;14.68;;;;;;;17.35;100.00;96476.41;5047626;28;20049;-64
2022/08/16 03:41:45;;;;;;;20.63;15.65;;;;;;;17.36;100.00;96478.78;5046461;28;20578;-65
2022/08/16 03:44:17;;;;;;;21.67;15.77;;;;;;;17.19;100.00;96429.53;5048031;28;20080;-56
2022/08/16 03:47:04;;;;;;;27.13;17.10;;;;;;;17.47;100.00;96481.41;5045083;28;20057;-64
2022/08/16 03:49:36;;;;;;;26.90;17.25;;;;;;;17.11;100.00;96427.28;5047612;28;20113;-64
2022/08/16 03:52:04;;;;;;;23.98;17.02;;;;;;;17.44;100.00;96473.84;5047528;28;20110;-65
2022/08/16 03:54:31;;;;;;;21.98;15.85;;;;;;;17.40;100.00;96489.94;5047503;28;20053;-56
2022/08/16 03:57:01;;;;;;;19.77;15.10;;;;;;;17.38;100.00;96486.75;5045821;28;20128;-56
2022/08/16 03:59:31;;;;;;;28.98;16.90;;;;;;;17.50;100.00;96480.53;5047349;28;20668;-56
2022/08/16 04:02:00;;;;;;;21.73;15.43;;;;;;;17.32;100.00;96440.88;5047050;28;20049;-65
2022/08/16 04:04:28;;;;;;;22.73;17.13;;;;;;;17.69;100.00;96483.38;5046885;28;20057;-64
2022/08/16 04:07:04;;;;;;;19.58;14.32;;;;;;;17.77;100.00;96492.44;5047111;28;20152;-65
2022/08/16 04:09:33;;;;;;;22.35;14.60;;;;;;;17.54;100.00;96486.88;5047234;28;20508;-58
2022/08/16 04:12:04;;;;;;;18.85;14.07;;;;;;;17.53;100.00;96485.31;5045547;28;20450;-64
2022/08/16 04:14:37;;;;;;;23.23;15.67;;;;;;;17.66;100.00;96477.84;5047047;28;20512;-59
2022/08/16 04:17:14;;;;;;;19.48;14.68;;;;;;;17.72;100.00;96479.72;5043244;28;20554;-65
2022/08/16 04:19:43;;;;;;;18.10;13.55;;;;;;;17.85;100.00;96482.66;5025711;28;20440;-65
2022/08/16 04:22:12;;;;;;;25.80;15.60;;;;;;;17.69;100.00;96454.56;5025266;28;20149;-58
2022/08/16 04:24:43;;;;;;;17.65;13.95;;;;;;;17.78;100.00;96444.38;5027054;28;20076;-57
2022/08/16 04:27:20;;;;;;;21.15;14.85;;;;;;;18.08;100.00;96468.56;5026674;28;20057;-64
2022/08/16 04:29:50;;;;;;;24.58;13.95;;;;;;;18.30;100.00;96486.50;5027097;28;20095;-57
2022/08/16 04:32:18;;;;;;;18.70;12.95;;;;;;;18.40;100.00;96484.72;5026877;28;20057;-57
2022/08/16 04:34:45;;;;;;;23.63;15.40;;;;;;;18.43;100.00;96484.63;5026985;28;20057;-64
2022/08/16 04:37:13;;;;;;;22.33;15.30;;;;;;;18.48;99.10;96498.13;5026364;28;20617;-62
2022/08/16 04:39:41;;;;;;;26.33;16.58;;;;;;;18.49;99.08;96474.50;5026725;28;20152;-56
2022/08/16 04:42:16;;;;;;;28.75;17.30;;;;;;;18.72;99.39;96484.75;5026383;28;20057;-56
2022/08/16 04:44:45;;;;;;;22.33;16.48;;;;;;;18.89;98.43;96484.34;5026316;28;20520;-64
2022/08/16 04:47:21;;;;;;;25.58;16.73;;;;;;;19.07;97.21;96487.50;5025118;28;20064;-66
2022/08/16 04:49:50;;;;;;;21.13;16.42;;;;;;;19.24;95.71;96483.44;5026395;28;20081;-65
2022/08/16 04:52:19;;;;;;;20.67;15.80;;;;;;;19.38;94.13;96488.72;5026048;28;20055;-65
2022/08/16 04:55:27;;;;;;;22.95;15.75;;;;;;;19.57;94.76;96486.25;5025417;28;20045;-56
2022/08/16 04:58:06;;;;;;;18.45;13.48;;;;;;;19.60;93.35;96488.16;5026566;28;20123;-57
2022/08/16 05:00:53;;;;;;;18.75;13.63;;;;;;;19.77;93.02;96489.69;5025264;28;20065;-64
2022/08/16 05:03:20;;;;;;;21.30;14.45;;;;;;;19.60;94.82;96493.78;5026362;28;20624;-58
2022/08/16 05:05:48;;;;;;;22.50;15.25;;;;;;;19.72;94.99;96493.03;5026060;28;20084;-65
2022/08/16 05:08:31;;;;;;;22.00;15.20;;;;;;;19.87;95.08;96499.88;5032362;28;20060;-56
2022/08/16 05:10:59;;;;;;;23.33;14.57;;;;;;;20.10;94.09;96494.75;5045844;28;20049;-59
2022/08/16 05:13:30;;;;;;;17.73;14.10;;;;;;;20.36;92.83;96501.28;5045962;28;20053;-57
2022/08/16 05:16:11;;;;;;;17.42;13.77;;;;;;;20.52;90.03;96504.78;5045105;28;20060;-56
2022/08/16 05:18:47;;;;;;;20.23;13.75;;;;;;;20.72;89.54;96508.16;5046248;28;20053;-56
2022/08/16 05:21:14;;;;;;;18.55;14.43;;;;;;;20.95;88.12;96502.22;5045971;28;20052;-64
2022/08/16 05:23:42;;;;;;;22.20;15.10;;;;;;;21.16;85.96;96491.50;5045952;28;20049;-56
2022/08/16 05:26:23;;;;;;;22.67;16.00;;;;;;;21.30;86.02;96480.56;5045580;28;20098;-59
2022/08/16 05:28:54;;;;;;;18.15;14.57;;;;;;;21.62;83.57;96479.44;5045966;28;20632;-56
2022/08/16 05:31:26;;;;;;;23.15;14.75;;;;;;;21.75;82.19;96466.91;5045718;28;20044;-56
2022/08/16 05:33:59;;;;;;;18.20;13.23;;;;;;;21.83;82.84;96476.69;5044071;28;20899;-64
2022/08/16 05:36:28;;;;;;;15.50;12.52;;;;;;;22.01;81.64;96490.94;5045623;28;20139;-64
2022/08/16 05:39:07;;;;;;;16.02;13.68;;;;;;;21.94;80.49;96434.78;5045583;28;20137;-62
2022/08/16 05:41:35;;;;;;;15.80;12.65;;;;;;;22.31;79.92;96470.44;5044971;28;20090;-64
2022/08/16 05:44:13;;;;;;;15.20;13.15;;;;;;;22.44;79.42;96473.97;5044167;28;20142;-64
2022/08/16 05:46:53;;;;;;;18.42;13.93;;;;;;;22.64;78.63;96482.09;5044186;28;20053;-64
2022/08/16 05:49:20;;;;;;;17.50;12.75;;;;;;;22.83;76.60;96489.41;5044934;28;20088;-56
2022/08/16 05:51:49;;;;;;;16.08;13.68;;;;;;;22.96;75.84;96481.63;5043232;28;20148;-65
2022/08/16 05:54:16;;;;;;;15.98;13.20;;;;;;;22.55;76.13;96396.56;5040953;28;20058;-62
2022/08/16 05:56:52;;;;;;;17.33;12.95;;;;;;;23.23;75.69;96480.91;5044425;28;20053;-57
2022/08/16 05:59:19;;;;;;;19.02;12.15;;;;;;;23.35;73.30;96480.03;5030009;28;20489;-69
2022/08/16 06:01:49;;;;;;;15.30;12.55;;;;;;;23.26;73.10;96454.56;5025213;28;20100;-62
2022/08/16 06:04:17;;;;;;;14.93;12.45;;;;;;;23.66;73.14;96486.38;5051548;28;20132;-59
2022/08/16 06:07:05;;;;;;;15.32;12.18;;;;;;;23.56;73.54;96493.25;5024187;28;20124;-66
2022/08/16 06:09:35;;;;;;;18.65;12.75;;;;;;;22.73;78.07;96490.59;5039307;28;20053;-55
2022/08/16 06:12:13;;;;;;;16.88;12.98;;;;;;;23.07;78.49;96492.47;5044534;28;20045;-66
2022/08/16 06:15:02;;;;;;;17.55;13.73;;;;;;;23.08;78.00;96489.19;5043353;28;20136;-56
2022/08/16 06:17:36;;;;;;;18.00;13.20;;;;;;;23.32;77.40;96475.31;5043004;28;20075;-66
2022/08/16 06:20:21;;;;;;;18.58;12.95;;;;;;;23.67;75.29;96479.44;5043875;28;20142;-72
2022/08/16 06:22:54;;;;;;;15.15;12.18;;;;;;;23.07;72.61;96368.16;5040686;28;20064;-57
2022/08/16 06:25:29;;;;;;;16.48;11.82;;;;;;;23.81;70.38;96430.75;5042968;28;20076;-59
2022/08/16 06:28:06;;;;;;;13.43;11.50;;;;;;;24.31;70.06;96423.63;5036648;28;20061;-56
2022/08/16 06:30:35;;;;;;;13.75;11.48;;;;;;;24.60;66.46;96409.69;5044253;28;20055;-63
2022/08/16 06:33:09;;;;;;;15.55;11.15;;;;;;;25.13;65.61;96453.25;5044741;28;20246;-65
2022/08/16 06:35:38;;;;;;;12.88;11.57;;;;;;;25.56;64.49;96446.25;5044461;28;20466;-69
2022/08/16 06:38:07;;;;;;;13.32;11.38;;;;;;;25.78;63.62;96446.69;5044126;28;20071;-58
2022/08/16 06:40:54;;;;;;;13.95;10.98;;;;;;;26.03;61.75;96440.53;5041549;28;20049;-56
2022/08/16 06:43:21;;;;;;;15.38;11.52;;;;;;;26.23;61.47;96437.78;5040873;28;20060;-59
2022/08/16 06:45:54;;;;;;;13.40;12.02;;;;;;;26.39;61.75;96448.69;5034406;28;20487;-55
2022/08/16 06:48:21;;;;;;;13.77;12.07;;;;;;;26.58;61.25;96435.84;5041771;28;20053;-55
2022/08/16 06:51:00;;;;;;;13.23;11.82;;;;;;;26.84;60.09;96442.53;5041915;28;20094;-55
2022/08/16 06:53:27;;;;;;;16.77;12.60;;;;;;;27.11;58.91;96438.56;5040488;28;20049;-62
2022/08/16 06:55:57;;;;;;;15.73;12.07;;;;;;;27.28;59.13;96426.19;5043962;28;20088;-54
2022/08/16 06:58:24;;;;;;;12.73;10.60;;;;;;;27.47;57.13;96432.38;5043903;28;20060;-55
2022/08/16 07:00:59;;;;;;;13.38;11.88;;;;;;;27.50;58.23;96437.88;5041863;28;20076;-55
2022/08/16 07:03:27;;;;;;;15.65;11.10;;;;;;;27.53;57.42;96433.22;5044123;28;20080;-64
2022/08/16 07:05:58;;;;;;;13.95;11.18;;;;;;;27.73;57.06;96427.53;5044376;28;20083;-53
2022/08/16 07:08:26;;;;;;;15.63;12.20;;;;;;;27.85;55.54;96429.25;5043242;28;20057;-63
2022/08/16 07:10:54;;;;;;;11.48;10.38;;;;;;;28.00;54.35;96447.03;5043009;28;20439;-63
2022/08/16 07:13:21;;;;;;;11.95;10.75;;;;;;;28.05;54.52;96427.19;5041773;28;20562;-65
2022/08/16 07:16:13;;;;;;;11.20;10.10;;;;;;;27.78;53.36;96384.91;5044187;28;20134;-76
2022/08/16 07:18:45;;;;;;;11.33;10.23;;;;;;;28.11;52.58;96425.19;5043057;28;20056;-66
2022/08/16 07:21:27;;;;;;;11.73;9.75;;;;;;;28.23;52.85;96423.25;5043353;28;20295;-55
2022/08/16 07:24:16;;;;;;;11.45;10.30;;;;;;;28.20;51.01;96392.13;5041191;28;20306;-65
2022/08/16 07:26:58;;;;;;;14.20;10.55;;;;;;;28.53;50.96;96415.28;5042282;28;20051;-59
2022/08/16 07:29:27;;;;;;;13.02;10.00;;;;;;;28.73;49.26;96403.78;5036240;28;20053;-56
2022/08/16 07:31:58;;;;;;;13.10;10.88;;;;;;;28.91;48.96;96417.66;5035061;28;20045;-61
2022/08/16 07:34:27;;;;;;;11.73;10.52;;;;;;;28.93;49.27;96415.06;5042658;28;20131;-68
2022/08/16 07:37:05;;;;;;;11.95;10.55;;;;;;;28.71;47.50;96360.72;5041471;28;20045;-68
2022/08/16 07:39:32;;;;;;;11.38;10.27;;;;;;;28.98;47.95;96383.75;5044495;28;20154;-64
2022/08/16 07:42:08;;;;;;;12.77;10.40;;;;;;;29.30;47.20;96410.19;5046648;28;20049;-55
2022/08/16 07:44:45;;;;;;;11.45;10.35;;;;;;;29.34;47.71;96422.91;5044433;28;20053;-64
2022/08/16 07:47:16;;;;;;;11.20;10.10;;;;;;;29.23;47.61;96382.09;5046524;28;20049;-57
2022/08/16 07:49:43;;;;;;;12.10;10.68;;;;;;;29.56;46.93;96434.47;5046204;28;20071;-65
2022/08/16 07:52:18;;;;;;;10.55;9.55;;;;;;;29.69;44.29;96416.13;5045852;28;20045;-64
2022/08/16 07:54:46;;;;;;;13.07;10.02;;;;;;;29.45;44.47;96353.69;5046391;28;20102;-57
2022/08/16 07:57:18;;;;;;;12.65;10.05;;;;;;;29.92;43.87;96415.72;5044587;28;20064;-56
2022/08/16 07:59:49;;;;;;;10.95;9.50;;;;;;;29.97;43.24;96412.06;5044768;28;20044;-58
2022/08/16 08:02:18;;;;;;;11.32;10.10;;;;;;;29.85;43.97;96369.69;5046897;28;20486;-66
2022/08/16 08:04:47;;;;;;;11.35;10.15;;;;;;;30.09;43.14;96413.69;5045960;28;20140;-56
2022/08/16 08:07:15;;;;;;;10.38;9.32;;;;;;;29.65;43.75;96378.47;5046516;28;20057;-58
2022/08/16 08:09:42;;;;;;;19.75;14.32;;;;;;;29.54;44.32;96405.63;5046046;28;20049;-56
2022/08/16 08:12:11;;;;;;;12.98;10.35;;;;;;;29.40;45.33;96351.59;5046259;28;20053;-56
2022/08/16 08:14:58;;;;;;;20.48;13.65;;;;;;;29.93;44.02;96405.84;5046747;28;20114;-67
2022/08/16 08:17:28;;;;;;;11.93;10.13;;;;;;;29.69;43.76;96396.91;5046827;28;20056;-66
2022/08/16 08:20:12;;;;;;;12.43;11.07;;;;;;;29.61;43.87;96355.84;5045764;28;20127;-56
2022/08/16 08:22:57;;;;;;;12.32;11.02;;;;;;;29.99;42.76;96395.19;5046806;28;20053;-66
2022/08/16 08:25:28;;;;;;;11.45;10.25;;;;;;;30.32;42.26;96391.69;5046736;28;20055;-55
2022/08/16 08:28:16;;;;;;;10.85;9.88;;;;;;;30.48;40.35;96391.69;5046397;28;20064;-64
2022/08/16 08:30:44;;;;;;;12.70;11.40;;;;;;;30.64;40.22;96387.28;5046664;28;20053;-64
2022/08/16 08:33:27;;;;;;;11.70;10.60;;;;;;;30.43;40.27;96314.53;5046132;28;20056;-58
2022/08/16 08:35:56;;;;;;;12.18;10.15;;;;;;;30.50;38.25;96368.31;5045924;28;20061;-67
2022/08/16 08:38:29;;;;;;;12.48;11.38;;;;;;;30.35;39.87;96354.25;5046529;28;20060;-65
2022/08/16 08:41:14;;;;;;;14.80;11.38;;;;;;;30.82;39.31;96390.47;5046416;28;20475;-66
2022/08/16 08:43:45;;;;;;;;;;;;;;;31.04;38.66;96377.41;5046793;28;20489;-66
2022/08/16 08:46:12;;;;;;;13.93;11.82;;;;;;;31.13;38.93;96380.00;5046117;28;19951;-56
2022/08/16 08:48:47;;;;;;;11.88;10.68;;;;;;;31.39;38.46;96386.22;5046139;28;20057;-56
2022/08/16 08:51:28;;;;;;;12.57;11.23;;;;;;;31.73;37.80;96379.06;5044618;28;20056;-66
2022/08/16 08:54:03;;;;;;;13.10;11.30;;;;;;;31.73;37.32;96344.69;5045998;28;20088;-58
2022/08/16 08:56:36;;;;;;;11.82;10.73;;;;;;;31.83;37.55;96374.59;5045628;28;20366;-64
2022/08/16 08:59:06;;;;;;;16.27;12.88;;;;;;;32.00;37.40;96378.19;5044323;28;20057;-56
2022/08/16 09:01:46;;;;;;;11.20;10.18;;;;;;;31.04;38.63;96371.69;5045636;28;20057;-66
2022/08/16 09:04:25;;;;;;;11.75;10.65;;;;;;;31.08;39.39;96383.66;5045895;28;20494;-56
2022/08/16 09:06:53;;;;;;;15.35;11.50;;;;;;;31.17;38.55;96357.63;5045224;28;21421;-66
2022/08/16 09:09:21;;;;;;;12.95;11.73;;;;;;;30.97;38.58;96326.47;5044265;28;20053;-56
2022/08/16 09:11:48;;;;;;;13.27;11.98;;;;;;;30.97;37.55;96234.91;5045115;28;20060;-66
2022/08/16 09:14:34;;;;;;;12.82;11.05;;;;;;;32.41;36.69;96366.78;5045311;28;20122;-56
2022/08/16 09:17:01;;;;;;;12.65;10.57;;;;;;;31.52;37.89;96349.22;5044433;28;20072;-67
2022/08/16 09:19:39;;;;;;;13.52;11.07;;;;;;;31.36;37.65;96284.22;5043746;28;20056;-55
2022/08/16 09:22:08;;;;;;;11.85;10.68;;;;;;;32.34;37.35;96391.03;5045117;28;20063;-56
2022/08/16 09:24:48;;;;;;;15.00;10.82;;;;;;;31.96;38.43;96377.72;5045607;28;20057;-57
2022/08/16 09:27:20;;;;;;;11.27;10.37;;;;;;;31.90;37.62;96385.56;5045366;28;20069;-55
2022/08/16 09:29:49;;;;;;;10.90;9.80;;;;;;;32.00;37.11;96361.00;5043472;28;20538;-55
2022/08/16 09:32:27;;;;;;;11.45;10.38;;;;;;;31.93;37.76;96350.13;5058323;28;20573;-55
2022/08/16 09:34:58;;;;;;;11.52;10.43;;;;;;;32.14;38.15;96345.53;5045053;28;20051;-67
2022/08/16 09:37:26;;;;;;;10.80;9.80;;;;;;;31.94;37.79;96352.44;5059724;28;20132;-57
2022/08/16 09:39:57;;;;;;;11.30;10.20;;;;;;;31.91;37.33;96358.44;5044580;28;20088;-65
2022/08/16 09:42:27;;;;;;;11.02;9.63;;;;;;;32.07;37.18;96371.91;5044615;28;20049;-55
2022/08/16 09:44:55;;;;;;;12.90;11.07;;;;;;;31.67;38.34;96381.19;5044981;28;20056;-57
2022/08/16 09:47:41;;;;;;;14.18;11.70;;;;;;;31.70;38.98;96380.13;5044790;28;20141;-65
2022/08/16 09:50:28;;;;;;;12.55;11.25;;;;;;;31.09;39.35;96350.88;5044150;28;20049;-55
2022/08/16 09:53:09;;;;;;;12.68;11.48;;;;;;;31.03;40.28;96370.16;5044395;28;20056;-67
2022/08/16 09:55:44;;;;;;;12.60;11.32;;;;;;;30.75;40.91;96373.78;5043476;28;20144;-56
2022/08/16 09:58:15;;;;;;;;;;;;;;;30.55;41.35;96381.84;5043171;28;20052;-63
2022/08/16 10:01:01;;;;;;;16.60;12.80;;;;;;;29.77;42.38;96311.53;5044398;28;19928;-71
2022/08/16 10:03:28;;;;;;;14.13;12.73;;;;;;;30.26;43.21;96382.31;5043271;28;20061;-58
2022/08/16 10:05:56;;;;;;;13.52;12.18;;;;;;;30.52;41.89;96383.66;5044414;28;20099;-57
2022/08/16 10:08:23;;;;;;;13.18;11.88;;;;;;;30.80;42.40;96386.53;5044151;28;20542;-58
2022/08/16 10:13:54;;;;;;;13.57;11.48;;;;;;;30.20;41.05;96242.25;5033550;28;20045;-56
2022/08/16 10:16:21;;;;;;;13.65;12.00;;;;;;;31.28;41.40;96377.63;5022134;28;20058;-54
2022/08/16 10:18:49;;;;;;;13.50;12.10;;;;;;;31.64;40.20;96350.72;5039204;28;20089;-65
2022/08/16 10:21:32;;;;;;;13.30;12.05;;;;;;;32.05;38.75;96363.06;5041025;28;20061;-56
2022/08/16 10:24:00;;;;;;;12.57;11.27;;;;;;;31.53;38.84;96347.91;5021769;28;20111;-72
2022/08/16 10:26:28;;;;;;;13.75;10.65;;;;;;;32.04;39.46;96381.56;5021107;28;20079;-66
2022/08/16 10:29:15;;;;;;;11.98;10.82;;;;;;;32.07;37.84;96351.84;5026909;28;20115;-56
2022/08/16 10:31:46;;;;;;;12.23;11.10;;;;;;;32.17;37.35;96359.59;5039395;28;20445;-57
2022/08/16 10:34:20;;;;;;;11.57;10.48;;;;;;;32.75;37.62;96386.06;5040793;28;20056;-56
2022/08/16 10:37:00;;;;;;;12.13;10.93;;;;;;;33.32;37.21;96376.44;5040443;28;20060;-64
2022/08/16 10:39:28;;;;;;;11.18;10.18;;;;;;;32.70;37.05;96372.56;5040348;28;20474;-65
2022/08/16 10:42:09;;;;;;;12.55;11.40;;;;;;;33.01;37.23;96334.72;5028379;28;20517;-66
2022/08/16 10:44:39;;;;;;;12.52;11.32;;;;;;;33.43;36.52;96354.13;5026289;28;20053;-68
2022/08/16 10:47:08;;;;;;;12.15;10.93;;;;;;;33.71;36.28;96371.06;5026064;28;20087;-61
2022/08/16 10:49:37;;;;;;;12.02;10.93;;;;;;;33.30;35.96;96362.63;5039379;28;20053;-67
2022/08/16 10:52:04;;;;;;;11.60;10.43;;;;;;;33.74;34.78;96370.75;5040158;28;20068;-72
2022/08/16 10:54:45;;;;;;;16.02;11.48;;;;;;;33.55;35.32;96372.03;5040018;28;20049;-57
2022/08/16 10:57:32;;;;;;;11.93;10.82;;;;;;;33.35;35.51;96358.91;5039858;28;20057;-65
2022/08/16 11:00:04;;;;;;;10.75;9.75;;;;;;;33.21;36.07;96371.56;5033424;28;20453;-58
2022/08/16 11:02:46;;;;;;;11.02;10.02;;;;;;;33.27;35.18;96363.69;5020289;28;20413;-55
2022/08/16 11:05:27;;;;;;;12.02;10.05;;;;;;;33.64;35.44;96368.78;5020691;28;20147;-72
2022/08/16 11:07:54;;;;;;;10.48;9.57;;;;;;;33.80;35.11;96353.44;5020381;28;20409;-67
2022/08/16 11:10:25;;;;;;;12.30;11.20;;;;;;;33.73;35.39;96328.19;5019206;28;20123;-63
2022/08/16 11:13:16;;;;;;;10.85;9.75;;;;;;;34.14;34.14;96365.28;5019357;28;20120;-70
2022/08/16 11:16:04;;;;;;;13.52;12.30;;;;;;;34.37;33.87;96364.44;5046293;28;20052;-57
2022/08/16 11:18:51;;;;;;;12.18;11.07;;;;;;;34.42;33.47;96334.03;5059322;28;20072;-59
2022/08/16 11:21:32;;;;;;;13.32;10.70;;;;;;;32.84;34.67;96339.81;5030848;28;20088;-61
2022/08/16 11:24:00;;;;;;;11.18;9.95;;;;;;;33.52;33.91;96362.41;5026344;28;20503;-66
2022/08/16 11:26:29;;;;;;;11.05;9.95;;;;;;;34.12;33.32;96368.72;5025153;28;20128;-56
2022/08/16 11:28:56;;;;;;;10.05;9.23;;;;;;;34.12;33.31;96356.44;5017458;28;20061;-68
2022/08/16 11:31:40;;;;;;;11.05;10.02;;;;;;;34.05;34.16;96328.31;5006548;28;20112;-58
2022/08/16 11:34:19;;;;;;;11.23;10.23;;;;;;;34.27;34.14;96328.75;5007017;28;20181;-64
2022/08/16 11:36:50;;;;;;;11.77;10.70;;;;;;;34.54;33.35;96358.47;5014495;28;20072;-54
2022/08/16 11:39:28;;;;;;;14.27;10.48;;;;;;;34.57;32.83;96368.88;5007419;28;20088;-69
2022/08/16 11:41:55;;;;;;;10.30;9.25;;;;;;;34.34;32.76;96356.09;5015796;28;20057;-70
2022/08/16 11:44:23;;;;;;;10.80;9.68;;;;;;;34.17;32.61;96306.69;5022761;28;20104;-69
2022/08/16 11:47:10;;;;;;;10.43;9.52;;;;;;;34.67;32.76;96356.41;5038996;28;20049;-56
2022/08/16 11:49:37;;;;;;;10.73;9.80;;;;;;;35.02;31.99;96363.94;5013677;28;20429;-67